sensor_id;sensor_type;location;lat;lon;timestamp;pressure;altitude;pressure_sealevel;temperature;humidity
64632;BME280;58358;50.936;0.246;2022-11-04T00:02:16;99272.39;;;7.06;85.00
64632;BME280;58358;50.936;0.246;2022-11-04T00:04:42;99274.94;;;7.00;85.04
64632;BME280;58358;50.936;0.246;2022-11-04T00:07:08;99275.92;;;6.56;83.95
64632;BME280;58358;50.936;0.246;2022-11-04T00:09:33;99278.02;;;6.86;84.97
64632;BME280;58358;50.936;0.246;2022-11-04T00:11:59;99277.57;;;6.16;87.43
64632;BME280;58358;50.936;0.246;2022-11-04T00:14:27;99265.54;;;6.31;87.62
64632;BME280;58358;50.936;0.246;2022-11-04T00:16:51;99260.95;;;6.09;87.99
64632;BME280;58358;50.936;0.246;2022-11-04T00:19:16;99257.76;;;5.46;91.72
64632;BME280;58358;50.936;0.246;2022-11-04T00:21:44;99262.09;;;5.39;91.41
64632;BME280;58358;50.936;0.246;2022-11-04T00:24:09;99263.17;;;5.89;89.14
64632;BME280;58358;50.936;0.246;2022-11-04T00:26:33;99264.29;;;6.73;86.75
64632;BME280;58358;50.936;0.246;2022-11-04T00:28:59;99259.29;;;7.35;84.43
64632;BME280;58358;50.936;0.246;2022-11-04T00:31:25;99258.52;;;7.53;82.24
64632;BME280;58358;50.936;0.246;2022-11-04T00:33:52;99263.59;;;6.36;85.58
64632;BME280;58358;50.936;0.246;2022-11-04T00:36:17;99264.25;;;7.06;83.43
64632;BME280;58358;50.936;0.246;2022-11-04T00:38:42;99268.21;;;6.38;86.35
64632;BME280;58358;50.936;0.246;2022-11-04T00:41:08;99270.12;;;6.51;85.40
64632;BME280;58358;50.936;0.246;2022-11-04T00:43:34;99267.56;;;7.29;84.46
64632;BME280;58358;50.936;0.246;2022-11-04T00:46:00;99271.15;;;7.15;84.01
64632;BME280;58358;50.936;0.246;2022-11-04T00:48:26;99273.42;;;7.53;82.92
64632;BME280;58358;50.936;0.246;2022-11-04T00:50:51;99274.35;;;6.27;86.08
64632;BME280;58358;50.936;0.246;2022-11-04T00:53:17;99280.35;;;6.44;86.27
64632;BME280;58358;50.936;0.246;2022-11-04T00:55:44;99276.12;;;7.42;85.45
64632;BME280;58358;50.936;0.246;2022-11-04T00:58:09;99283.81;;;6.13;87.11
64632;BME280;58358;50.936;0.246;2022-11-04T01:00:35;99285.00;;;6.34;85.95
64632;BME280;58358;50.936;0.246;2022-11-04T01:03:00;99283.27;;;7.59;83.38
64632;BME280;58358;50.936;0.246;2022-11-04T01:05:26;99286.09;;;8.03;80.98
64632;BME280;58358;50.936;0.246;2022-11-04T01:07:52;99289.38;;;7.58;82.11
64632;BME280;58358;50.936;0.246;2022-11-04T01:10:18;99298.74;;;7.03;84.08
64632;BME280;58358;50.936;0.246;2022-11-04T01:12:44;99305.42;;;6.79;85.95
64632;BME280;58358;50.936;0.246;2022-11-04T01:15:10;99305.67;;;7.43;84.12
64632;BME280;58358;50.936;0.246;2022-11-04T01:17:35;99305.76;;;7.58;83.82
64632;BME280;58358;50.936;0.246;2022-11-04T01:20:01;99309.40;;;8.19;80.99
64632;BME280;58358;50.936;0.246;2022-11-04T01:22:27;99311.15;;;7.87;81.42
64632;BME280;58358;50.936;0.246;2022-11-04T01:24:52;99315.61;;;8.46;80.77
64632;BME280;58358;50.936;0.246;2022-11-04T01:27:18;99317.66;;;8.35;80.03
64632;BME280;58358;50.936;0.246;2022-11-04T01:29:44;99317.94;;;7.61;79.79
64632;BME280;58358;50.936;0.246;2022-11-04T01:32:10;99316.54;;;8.58;77.50
64632;BME280;58358;50.936;0.246;2022-11-04T01:34:36;99323.47;;;7.73;80.20
64632;BME280;58358;50.936;0.246;2022-11-04T01:37:02;99323.82;;;7.16;83.62
64632;BME280;58358;50.936;0.246;2022-11-04T01:39:27;99331.66;;;6.70;83.86
64632;BME280;58358;50.936;0.246;2022-11-04T01:41:53;99332.16;;;7.86;81.61
64632;BME280;58358;50.936;0.246;2022-11-04T01:46:47;99336.56;;;6.37;87.91
64632;BME280;58358;50.936;0.246;2022-11-04T01:49:21;99336.77;;;6.77;85.76
64632;BME280;58358;50.936;0.246;2022-11-04T01:51:38;99338.91;;;6.61;85.64
64632;BME280;58358;50.936;0.246;2022-11-04T01:54:04;99342.22;;;6.12;87.76
64632;BME280;58358;50.936;0.246;2022-11-04T01:56:28;99347.08;;;5.74;90.37
64632;BME280;58358;50.936;0.246;2022-11-04T01:58:56;99352.22;;;4.96;93.58
64632;BME280;58358;50.936;0.246;2022-11-04T02:01:19;99351.94;;;6.12;89.64
64632;BME280;58358;50.936;0.246;2022-11-04T02:03:49;99352.12;;;5.76;91.42
64632;BME280;58358;50.936;0.246;2022-11-04T02:06:11;99356.11;;;5.88;91.28
64632;BME280;58358;50.936;0.246;2022-11-04T02:08:37;99363.45;;;5.15;93.26
64632;BME280;58358;50.936;0.246;2022-11-04T02:11:03;99367.66;;;5.22;94.47
64632;BME280;58358;50.936;0.246;2022-11-04T02:13:30;99369.67;;;5.48;93.01
64632;BME280;58358;50.936;0.246;2022-11-04T02:16:01;99373.46;;;5.62;92.03
64632;BME280;58358;50.936;0.246;2022-11-04T02:18:30;99375.93;;;5.88;90.94
64632;BME280;58358;50.936;0.246;2022-11-04T02:21:00;99377.18;;;5.16;91.11
64632;BME280;58358;50.936;0.246;2022-11-04T02:30:31;99391.55;;;5.52;90.84
64632;BME280;58358;50.936;0.246;2022-11-04T02:33:06;99395.10;;;5.72;89.55
64632;BME280;58358;50.936;0.246;2022-11-04T02:35:23;99398.85;;;5.46;91.34
64632;BME280;58358;50.936;0.246;2022-11-04T02:37:53;99400.73;;;5.78;91.12
64632;BME280;58358;50.936;0.246;2022-11-04T02:40:19;99406.98;;;5.53;91.20
64632;BME280;58358;50.936;0.246;2022-11-04T02:42:44;99412.97;;;5.75;91.25
64632;BME280;58358;50.936;0.246;2022-11-04T02:45:13;99414.18;;;4.97;92.56
64632;BME280;58358;50.936;0.246;2022-11-04T02:47:30;99417.82;;;5.87;90.45
64632;BME280;58358;50.936;0.246;2022-11-04T02:50:02;99419.14;;;6.21;88.88
64632;BME280;58358;50.936;0.246;2022-11-04T02:52:26;99422.62;;;5.58;91.95
64632;BME280;58358;50.936;0.246;2022-11-04T02:54:50;99425.64;;;5.32;93.23
64632;BME280;58358;50.936;0.246;2022-11-04T02:57:15;99429.02;;;5.55;92.21
64632;BME280;58358;50.936;0.246;2022-11-04T02:59:40;99433.10;;;5.96;90.48
64632;BME280;58358;50.936;0.246;2022-11-04T03:02:06;99441.93;;;5.74;91.43
64632;BME280;58358;50.936;0.246;2022-11-04T03:04:35;99447.98;;;5.74;92.43
64632;BME280;58358;50.936;0.246;2022-11-04T03:06:57;99448.65;;;5.77;90.23
64632;BME280;58358;50.936;0.246;2022-11-04T03:09:22;99452.76;;;5.54;91.17
64632;BME280;58358;50.936;0.246;2022-11-04T03:11:51;99460.77;;;5.51;90.86
64632;BME280;58358;50.936;0.246;2022-11-04T03:14:15;99463.83;;;5.43;92.82
64632;BME280;58358;50.936;0.246;2022-11-04T03:16:41;99466.77;;;5.50;91.16
64632;BME280;58358;50.936;0.246;2022-11-04T03:19:10;99465.40;;;5.13;93.24
64632;BME280;58358;50.936;0.246;2022-11-04T03:21:33;99473.03;;;4.74;95.91
64632;BME280;58358;50.936;0.246;2022-11-04T03:23:55;99478.46;;;4.45;95.94
64632;BME280;58358;50.936;0.246;2022-11-04T03:26:27;99474.74;;;4.47;96.42
64632;BME280;58358;50.936;0.246;2022-11-04T03:28:54;99487.72;;;4.91;96.88
64632;BME280;58358;50.936;0.246;2022-11-04T03:31:20;99495.22;;;4.69;96.75
64632;BME280;58358;50.936;0.246;2022-11-04T03:33:41;99498.85;;;5.26;95.31
64632;BME280;58358;50.936;0.246;2022-11-04T03:36:05;99500.47;;;5.82;91.30
64632;BME280;58358;50.936;0.246;2022-11-04T03:38:30;99507.60;;;5.35;92.38
64632;BME280;58358;50.936;0.246;2022-11-04T03:40:57;99513.53;;;5.94;91.52
64632;BME280;58358;50.936;0.246;2022-11-04T03:43:26;99521.90;;;5.73;92.83
64632;BME280;58358;50.936;0.246;2022-11-04T03:45:48;99523.74;;;4.90;94.29
64632;BME280;58358;50.936;0.246;2022-11-04T03:48:13;99530.05;;;5.31;93.48
64632;BME280;58358;50.936;0.246;2022-11-04T03:50:41;99534.20;;;4.76;94.52
64632;BME280;58358;50.936;0.246;2022-11-04T03:53:05;99544.14;;;4.91;93.54
64632;BME280;58358;50.936;0.246;2022-11-04T03:55:38;99547.14;;;5.37;93.64
64632;BME280;58358;50.936;0.246;2022-11-04T03:58:02;99552.56;;;5.22;92.97
64632;BME280;58358;50.936;0.246;2022-11-04T04:00:23;99554.56;;;4.56;95.78
64632;BME280;58358;50.936;0.246;2022-11-04T04:02:59;99560.55;;;4.73;95.98
64632;BME280;58358;50.936;0.246;2022-11-04T04:05:19;99565.78;;;4.96;93.37
64632;BME280;58358;50.936;0.246;2022-11-04T04:07:47;99568.70;;;5.72;90.95
64632;BME280;58358;50.936;0.246;2022-11-04T04:10:11;99572.58;;;4.90;92.13
64632;BME280;58358;50.936;0.246;2022-11-04T04:12:36;99566.86;;;5.16;92.05
64632;BME280;58358;50.936;0.246;2022-11-04T04:15:02;99589.93;;;4.84;95.00
64632;BME280;58358;50.936;0.246;2022-11-04T04:17:27;99596.06;;;4.25;95.56
64632;BME280;58358;50.936;0.246;2022-11-04T04:19:52;99602.92;;;4.73;94.79
64632;BME280;58358;50.936;0.246;2022-11-04T04:22:19;99603.85;;;4.91;94.44
64632;BME280;58358;50.936;0.246;2022-11-04T04:24:43;99614.68;;;5.65;90.85
64632;BME280;58358;50.936;0.246;2022-11-04T04:27:06;99619.02;;;5.37;91.40
64632;BME280;58358;50.936;0.246;2022-11-04T04:29:32;99626.09;;;5.21;94.38
64632;BME280;58358;50.936;0.246;2022-11-04T04:31:58;99634.81;;;4.40;97.59
64632;BME280;58358;50.936;0.246;2022-11-04T04:34:26;99638.75;;;5.24;95.45
64632;BME280;58358;50.936;0.246;2022-11-04T04:36:55;99646.75;;;4.75;96.67
64632;BME280;58358;50.936;0.246;2022-11-04T04:39:18;99646.95;;;5.74;92.77
64632;BME280;58358;50.936;0.246;2022-11-04T04:41:41;99648.66;;;5.09;94.55
64632;BME280;58358;50.936;0.246;2022-11-04T04:44:14;99653.08;;;5.32;93.72
64632;BME280;58358;50.936;0.246;2022-11-04T04:46:32;99655.31;;;5.11;95.61
64632;BME280;58358;50.936;0.246;2022-11-04T04:49:03;99651.88;;;5.22;94.73
64632;BME280;58358;50.936;0.246;2022-11-04T04:51:24;99653.44;;;5.43;93.28
64632;BME280;58358;50.936;0.246;2022-11-04T04:53:49;99657.37;;;6.22;90.68
64632;BME280;58358;50.936;0.246;2022-11-04T04:56:15;99659.70;;;5.61;89.60
64632;BME280;58358;50.936;0.246;2022-11-04T04:58:40;99669.22;;;5.55;90.68
64632;BME280;58358;50.936;0.246;2022-11-04T05:01:06;99671.59;;;4.75;92.69
64632;BME280;58358;50.936;0.246;2022-11-04T05:03:32;99678.77;;;4.72;93.46
64632;BME280;58358;50.936;0.246;2022-11-04T05:05:58;99686.94;;;4.65;95.34
64632;BME280;58358;50.936;0.246;2022-11-04T05:08:23;99694.66;;;5.01;93.65
64632;BME280;58358;50.936;0.246;2022-11-04T05:10:49;99700.43;;;5.05;93.57
64632;BME280;58358;50.936;0.246;2022-11-04T05:13:15;99701.40;;;4.94;92.57
64632;BME280;58358;50.936;0.246;2022-11-04T05:15:41;99704.55;;;4.83;93.05
64632;BME280;58358;50.936;0.246;2022-11-04T05:18:07;99708.81;;;4.89;93.32
64632;BME280;58358;50.936;0.246;2022-11-04T05:20:32;99712.77;;;4.25;95.58
64632;BME280;58358;50.936;0.246;2022-11-04T05:22:58;99714.47;;;5.68;90.77
64632;BME280;58358;50.936;0.246;2022-11-04T05:25:24;99725.39;;;4.69;91.67
64632;BME280;58358;50.936;0.246;2022-11-04T05:27:50;99735.24;;;5.05;91.68
64632;BME280;58358;50.936;0.246;2022-11-04T05:30:15;99740.35;;;4.87;91.83
64632;BME280;58358;50.936;0.246;2022-11-04T05:32:41;99761.80;;;4.93;91.92
64632;BME280;58358;50.936;0.246;2022-11-04T05:35:07;99771.36;;;4.85;92.10
64632;BME280;58358;50.936;0.246;2022-11-04T05:37:32;99778.17;;;5.82;88.60
64632;BME280;58358;50.936;0.246;2022-11-04T05:39:58;99787.98;;;5.19;89.23
64632;BME280;58358;50.936;0.246;2022-11-04T05:42:23;99790.14;;;5.78;88.72
64632;BME280;58358;50.936;0.246;2022-11-04T05:44:48;99789.82;;;5.34;90.19
64632;BME280;58358;50.936;0.246;2022-11-04T05:47:14;99793.83;;;5.48;88.74
64632;BME280;58358;50.936;0.246;2022-11-04T05:49:40;99806.07;;;5.74;89.73
64632;BME280;58358;50.936;0.246;2022-11-04T05:52:06;99815.43;;;4.96;91.20
64632;BME280;58358;50.936;0.246;2022-11-04T05:54:32;99819.24;;;5.16;90.46
64632;BME280;58358;50.936;0.246;2022-11-04T05:56:57;99830.64;;;5.32;89.47
64632;BME280;58358;50.936;0.246;2022-11-04T05:59:23;99846.90;;;5.98;87.04
64632;BME280;58358;50.936;0.246;2022-11-04T06:01:49;99845.89;;;4.83;90.96
64632;BME280;58358;50.936;0.246;2022-11-04T06:04:16;99853.56;;;4.65;93.00
64632;BME280;58358;50.936;0.246;2022-11-04T06:06:40;99856.82;;;4.89;91.80
64632;BME280;58358;50.936;0.246;2022-11-04T06:09:06;99853.88;;;4.58;92.13
64632;BME280;58358;50.936;0.246;2022-11-04T06:11:33;99861.57;;;4.93;93.36
64632;BME280;58358;50.936;0.246;2022-11-04T06:13:58;99875.27;;;4.68;93.72
64632;BME280;58358;50.936;0.246;2022-11-04T06:16:24;99881.47;;;4.34;95.64
64632;BME280;58358;50.936;0.246;2022-11-04T06:18:49;99891.79;;;4.73;93.03
64632;BME280;58358;50.936;0.246;2022-11-04T06:21:21;99900.21;;;5.49;90.85
64632;BME280;58358;50.936;0.246;2022-11-04T06:23:41;99899.45;;;4.51;92.46
64632;BME280;58358;50.936;0.246;2022-11-04T06:26:06;99901.47;;;4.49;93.24
64632;BME280;58358;50.936;0.246;2022-11-04T06:28:32;99910.05;;;5.03;92.50
64632;BME280;58358;50.936;0.246;2022-11-04T06:30:59;99923.36;;;5.31;91.90
64632;BME280;58358;50.936;0.246;2022-11-04T06:33:24;99933.26;;;4.93;91.88
64632;BME280;58358;50.936;0.246;2022-11-04T06:35:49;99941.50;;;4.59;92.55
64632;BME280;58358;50.936;0.246;2022-11-04T06:38:14;99946.25;;;4.63;94.61
64632;BME280;58358;50.936;0.246;2022-11-04T06:40:40;99944.88;;;4.54;95.00
64632;BME280;58358;50.936;0.246;2022-11-04T06:43:05;99951.77;;;3.78;95.09
64632;BME280;58358;50.936;0.246;2022-11-04T06:45:31;99957.03;;;4.66;92.48
64632;BME280;58358;50.936;0.246;2022-11-04T06:47:56;99968.33;;;4.44;92.92
64632;BME280;58358;50.936;0.246;2022-11-04T06:50:22;99980.02;;;4.76;91.92
64632;BME280;58358;50.936;0.246;2022-11-04T06:52:47;99993.70;;;4.19;94.44
64632;BME280;58358;50.936;0.246;2022-11-04T06:55:13;100006.40;;;4.14;94.73
64632;BME280;58358;50.936;0.246;2022-11-04T06:57:38;100019.91;;;4.18;94.08
64632;BME280;58358;50.936;0.246;2022-11-04T07:00:04;100027.90;;;4.55;94.38
64632;BME280;58358;50.936;0.246;2022-11-04T07:02:29;100047.09;;;4.49;93.10
64632;BME280;58358;50.936;0.246;2022-11-04T07:04:54;100057.47;;;3.99;96.41
64632;BME280;58358;50.936;0.246;2022-11-04T07:07:19;100061.90;;;3.89;97.21
64632;BME280;58358;50.936;0.246;2022-11-04T07:09:45;100063.15;;;4.16;95.94
64632;BME280;58358;50.936;0.246;2022-11-04T07:12:10;100070.94;;;4.00;95.56
64632;BME280;58358;50.936;0.246;2022-11-04T07:14:36;100082.26;;;3.88;95.95
64632;BME280;58358;50.936;0.246;2022-11-04T07:17:02;100097.39;;;3.71;96.17
64632;BME280;58358;50.936;0.246;2022-11-04T07:19:27;100111.86;;;3.54;98.36
64632;BME280;58358;50.936;0.246;2022-11-04T07:21:53;100121.63;;;4.22;95.71
64632;BME280;58358;50.936;0.246;2022-11-04T07:24:18;100138.15;;;3.95;95.86
64632;BME280;58358;50.936;0.246;2022-11-04T07:26:43;100142.54;;;4.11;95.01
64632;BME280;58358;50.936;0.246;2022-11-04T07:29:09;100154.58;;;2.93;97.37
64632;BME280;58358;50.936;0.246;2022-11-04T07:31:35;100160.78;;;3.60;97.58
64632;BME280;58358;50.936;0.246;2022-11-04T07:34:00;100165.95;;;4.22;95.13
64632;BME280;58358;50.936;0.246;2022-11-04T07:36:26;100174.37;;;3.36;96.97
64632;BME280;58358;50.936;0.246;2022-11-04T07:38:51;100177.41;;;4.73;94.01
64632;BME280;58358;50.936;0.246;2022-11-04T07:41:17;100181.61;;;4.02;93.91
64632;BME280;58358;50.936;0.246;2022-11-04T07:43:46;100195.46;;;3.79;95.70
64632;BME280;58358;50.936;0.246;2022-11-04T07:46:10;100195.53;;;3.85;94.77
64632;BME280;58358;50.936;0.246;2022-11-04T07:48:33;100206.74;;;3.76;96.44
64632;BME280;58358;50.936;0.246;2022-11-04T07:50:59;100207.32;;;4.10;93.63
64632;BME280;58358;50.936;0.246;2022-11-04T07:53:24;100217.68;;;3.98;93.46
64632;BME280;58358;50.936;0.246;2022-11-04T07:55:50;100228.10;;;4.42;93.01
64632;BME280;58358;50.936;0.246;2022-11-04T07:58:15;100231.73;;;4.76;91.94
64632;BME280;58358;50.936;0.246;2022-11-04T08:00:41;100238.01;;;4.49;92.85
64632;BME280;58358;50.936;0.246;2022-11-04T08:03:06;100242.13;;;4.19;90.84
64632;BME280;58358;50.936;0.246;2022-11-04T08:05:32;100261.40;;;4.63;91.45
64632;BME280;58358;50.936;0.246;2022-11-04T08:07:57;100258.67;;;4.42;93.05
64632;BME280;58358;50.936;0.246;2022-11-04T08:10:24;100263.52;;;4.58;89.08
64632;BME280;58358;50.936;0.246;2022-11-04T08:12:50;100264.29;;;5.83;88.05
64632;BME280;58358;50.936;0.246;2022-11-04T08:15:14;100269.10;;;4.66;88.90
64632;BME280;58358;50.936;0.246;2022-11-04T08:17:40;100281.86;;;5.77;88.24
64632;BME280;58358;50.936;0.246;2022-11-04T08:20:06;100282.09;;;4.29;90.17
64632;BME280;58358;50.936;0.246;2022-11-04T08:22:33;100287.91;;;5.25;89.44
64632;BME280;58358;50.936;0.246;2022-11-04T08:24:57;100282.84;;;4.76;89.81
64632;BME280;58358;50.936;0.246;2022-11-04T08:27:22;100290.38;;;5.12;89.40
64632;BME280;58358;50.936;0.246;2022-11-04T08:29:48;100293.44;;;5.17;88.99
64632;BME280;58358;50.936;0.246;2022-11-04T08:32:13;100297.17;;;4.40;92.44
64632;BME280;58358;50.936;0.246;2022-11-04T08:34:39;100302.62;;;4.30;93.23
64632;BME280;58358;50.936;0.246;2022-11-04T08:37:04;100300.35;;;4.64;89.75
64632;BME280;58358;50.936;0.246;2022-11-04T08:39:30;100309.11;;;5.08;90.13
64632;BME280;58358;50.936;0.246;2022-11-04T08:41:56;100321.33;;;4.89;91.31
64632;BME280;58358;50.936;0.246;2022-11-04T08:44:21;100325.44;;;4.51;91.48
64632;BME280;58358;50.936;0.246;2022-11-04T08:46:47;100334.02;;;4.69;91.01
64632;BME280;58358;50.936;0.246;2022-11-04T08:49:13;100327.68;;;4.84;90.92
64632;BME280;58358;50.936;0.246;2022-11-04T08:51:41;100321.74;;;4.73;91.87
64632;BME280;58358;50.936;0.246;2022-11-04T08:54:04;100327.96;;;4.39;92.38
64632;BME280;58358;50.936;0.246;2022-11-04T08:56:32;100337.60;;;4.34;92.41
64632;BME280;58358;50.936;0.246;2022-11-04T08:58:57;100343.03;;;4.34;93.81
64632;BME280;58358;50.936;0.246;2022-11-04T09:01:22;100345.00;;;4.79;91.72
64632;BME280;58358;50.936;0.246;2022-11-04T09:03:48;100361.77;;;4.44;92.61
64632;BME280;58358;50.936;0.246;2022-11-04T09:06:19;100364.40;;;4.60;94.76
64632;BME280;58358;50.936;0.246;2022-11-04T09:08:39;100365.27;;;4.65;93.82
64632;BME280;58358;50.936;0.246;2022-11-04T09:11:06;100369.59;;;4.46;92.36
64632;BME280;58358;50.936;0.246;2022-11-04T09:13:30;100364.99;;;5.15;91.47
64632;BME280;58358;50.936;0.246;2022-11-04T09:15:56;100369.69;;;5.23;90.23
64632;BME280;58358;50.936;0.246;2022-11-04T09:18:22;100374.23;;;5.52;90.19
64632;BME280;58358;50.936;0.246;2022-11-04T09:20:47;100382.41;;;4.84;90.02
64632;BME280;58358;50.936;0.246;2022-11-04T09:23:13;100378.31;;;5.09;90.58
64632;BME280;58358;50.936;0.246;2022-11-04T09:25:39;100384.34;;;4.97;91.16
64632;BME280;58358;50.936;0.246;2022-11-04T09:28:04;100391.93;;;5.01;90.52
64632;BME280;58358;50.936;0.246;2022-11-04T09:30:29;100392.40;;;5.87;88.92
64632;BME280;58358;50.936;0.246;2022-11-04T09:32:55;100411.42;;;5.00;89.66
64632;BME280;58358;50.936;0.246;2022-11-04T09:35:21;100394.54;;;4.23;92.72
64632;BME280;58358;50.936;0.246;2022-11-04T09:37:47;100392.70;;;4.90;90.92
64632;BME280;58358;50.936;0.246;2022-11-04T09:40:15;100396.02;;;5.54;89.45
64632;BME280;58358;50.936;0.246;2022-11-04T09:42:51;100397.27;;;5.07;91.20
64632;BME280;58358;50.936;0.246;2022-11-04T09:45:10;100399.96;;;4.92;92.14
64632;BME280;58358;50.936;0.246;2022-11-04T09:47:30;100401.66;;;5.48;90.64
64632;BME280;58358;50.936;0.246;2022-11-04T09:49:57;100397.70;;;5.20;88.94
64632;BME280;58358;50.936;0.246;2022-11-04T09:52:25;100402.60;;;5.26;90.10
64632;BME280;58358;50.936;0.246;2022-11-04T09:54:53;100408.22;;;5.64;89.03
64632;BME280;58358;50.936;0.246;2022-11-04T09:57:16;100422.68;;;5.64;87.89
64632;BME280;58358;50.936;0.246;2022-11-04T09:59:37;100429.14;;;5.71;87.26
64632;BME280;58358;50.936;0.246;2022-11-04T10:02:20;100428.24;;;5.26;87.61
64632;BME280;58358;50.936;0.246;2022-11-04T10:04:40;100444.42;;;5.22;88.72
64632;BME280;58358;50.936;0.246;2022-11-04T10:07:06;100449.31;;;5.51;87.67
64632;BME280;58358;50.936;0.246;2022-11-04T10:09:33;100460.62;;;5.69;87.33
64632;BME280;58358;50.936;0.246;2022-11-04T10:11:55;100462.36;;;5.98;83.96
64632;BME280;58358;50.936;0.246;2022-11-04T10:16:45;100474.12;;;6.11;85.44
64632;BME280;58358;50.936;0.246;2022-11-04T10:19:18;100469.61;;;5.47;86.99
64632;BME280;58358;50.936;0.246;2022-11-04T10:21:36;100474.64;;;5.68;86.88
64632;BME280;58358;50.936;0.246;2022-11-04T10:24:04;100473.31;;;6.14;83.60
64632;BME280;58358;50.936;0.246;2022-11-04T10:26:26;100479.07;;;7.13;81.25
64632;BME280;58358;50.936;0.246;2022-11-04T10:28:50;100477.20;;;6.58;82.44
64632;BME280;58358;50.936;0.246;2022-11-04T10:31:14;100484.64;;;6.66;81.83
64632;BME280;58358;50.936;0.246;2022-11-04T10:33:39;100494.30;;;5.68;85.17
64632;BME280;58358;50.936;0.246;2022-11-04T10:36:06;100509.97;;;6.29;81.65
64632;BME280;58358;50.936;0.246;2022-11-04T10:38:35;100507.73;;;5.91;83.22
64632;BME280;58358;50.936;0.246;2022-11-04T10:40:54;100507.06;;;6.19;81.81
64632;BME280;58358;50.936;0.246;2022-11-04T10:43:25;100521.45;;;5.79;85.92
64632;BME280;58358;50.936;0.246;2022-11-04T10:45:54;100519.63;;;5.90;84.64
64632;BME280;58358;50.936;0.246;2022-11-04T10:48:16;100527.90;;;6.88;80.35
64632;BME280;58358;50.936;0.246;2022-11-04T10:50:39;100540.73;;;7.15;80.05
64632;BME280;58358;50.936;0.246;2022-11-04T10:53:10;100548.91;;;6.64;80.09
64632;BME280;58358;50.936;0.246;2022-11-04T10:55:35;100554.45;;;6.31;80.06
64632;BME280;58358;50.936;0.246;2022-11-04T10:57:55;100553.68;;;6.64;80.56
64632;BME280;58358;50.936;0.246;2022-11-04T11:00:32;100552.17;;;7.07;77.77
64632;BME280;58358;50.936;0.246;2022-11-04T11:02:46;100565.57;;;7.27;76.76
64632;BME280;58358;50.936;0.246;2022-11-04T11:05:18;100575.81;;;7.00;78.58
64632;BME280;58358;50.936;0.246;2022-11-04T11:07:37;100582.79;;;6.73;78.08
64632;BME280;58358;50.936;0.246;2022-11-04T11:10:04;100590.57;;;7.54;77.88
64632;BME280;58358;50.936;0.246;2022-11-04T11:12:29;100601.18;;;6.80;78.55
64632;BME280;58358;50.936;0.246;2022-11-04T11:14:55;100597.45;;;6.91;79.77
64632;BME280;58358;50.936;0.246;2022-11-04T11:17:23;100603.80;;;6.90;79.61
64632;BME280;58358;50.936;0.246;2022-11-04T11:19:49;100608.54;;;7.85;78.93
64632;BME280;58358;50.936;0.246;2022-11-04T11:24:37;100617.50;;;7.06;76.12
64632;BME280;58358;50.936;0.246;2022-11-04T11:27:08;100628.08;;;7.56;76.63
64632;BME280;58358;50.936;0.246;2022-11-04T11:29:31;100631.61;;;7.61;76.53
64632;BME280;58358;50.936;0.246;2022-11-04T11:31:56;100646.87;;;7.42;76.23
64632;BME280;58358;50.936;0.246;2022-11-04T11:34:25;100643.69;;;8.00;74.35
64632;BME280;58358;50.936;0.246;2022-11-04T11:36:46;100643.06;;;7.78;75.84
64632;BME280;58358;50.936;0.246;2022-11-04T11:39:16;100638.97;;;7.67;75.03
64632;BME280;58358;50.936;0.246;2022-11-04T11:41:48;100637.62;;;7.61;75.14
64632;BME280;58358;50.936;0.246;2022-11-04T11:44:06;100643.00;;;8.00;74.17
64632;BME280;58358;50.936;0.246;2022-11-04T11:46:30;100639.53;;;8.51;72.56
64632;BME280;58358;50.936;0.246;2022-11-04T11:48:56;100640.14;;;8.45;73.78
64632;BME280;58358;50.936;0.246;2022-11-04T11:51:24;100645.02;;;7.95;72.87
64632;BME280;58358;50.936;0.246;2022-11-04T11:56:21;100647.53;;;7.77;73.69
64632;BME280;58358;50.936;0.246;2022-11-04T11:58:43;100650.86;;;7.98;73.29
64632;BME280;58358;50.936;0.246;2022-11-04T12:01:09;100655.86;;;7.75;74.52
64632;BME280;58358;50.936;0.246;2022-11-04T12:03:31;100664.88;;;7.92;73.70
64632;BME280;58358;50.936;0.246;2022-11-04T12:06:02;100667.11;;;8.06;72.57
64632;BME280;58358;50.936;0.246;2022-11-04T12:08:31;100669.88;;;7.92;72.25
64632;BME280;58358;50.936;0.246;2022-11-04T12:10:52;100680.76;;;7.80;73.76
64632;BME280;58358;50.936;0.246;2022-11-04T12:13:14;100672.05;;;8.21;72.13
64632;BME280;58358;50.936;0.246;2022-11-04T12:15:50;100684.78;;;7.81;73.78
64632;BME280;58358;50.936;0.246;2022-11-04T12:18:14;100696.21;;;7.93;71.83
64632;BME280;58358;50.936;0.246;2022-11-04T12:20:42;100695.21;;;8.15;73.31
64632;BME280;58358;50.936;0.246;2022-11-04T12:22:59;100700.18;;;8.00;70.20
64632;BME280;58358;50.936;0.246;2022-11-04T12:25:22;100698.95;;;9.12;70.16
64632;BME280;58358;50.936;0.246;2022-11-04T12:27:51;100692.29;;;9.53;67.42
64632;BME280;58358;50.936;0.246;2022-11-04T12:30:12;100696.69;;;9.00;67.80
64632;BME280;58358;50.936;0.246;2022-11-04T12:32:55;100704.75;;;9.11;67.09
64632;BME280;58358;50.936;0.246;2022-11-04T12:35:13;100708.42;;;9.63;62.76
64632;BME280;58358;50.936;0.246;2022-11-04T12:37:33;100716.53;;;9.77;65.42
64632;BME280;58358;50.936;0.246;2022-11-04T12:40:05;100718.05;;;8.87;69.42
64632;BME280;58358;50.936;0.246;2022-11-04T12:42:24;100716.08;;;8.18;69.60
64632;BME280;58358;50.936;0.246;2022-11-04T12:44:51;100716.60;;;8.52;69.49
64632;BME280;58358;50.936;0.246;2022-11-04T12:47:21;100721.25;;;8.29;68.19
64632;BME280;58358;50.936;0.246;2022-11-04T12:49:48;100716.32;;;8.20;69.06
64632;BME280;58358;50.936;0.246;2022-11-04T12:52:07;100713.03;;;7.82;70.36
64632;BME280;58358;50.936;0.246;2022-11-04T12:54:37;100705.28;;;7.96;68.98
64632;BME280;58358;50.936;0.246;2022-11-04T12:57:00;100707.88;;;8.91;68.13
64632;BME280;58358;50.936;0.246;2022-11-04T12:59:33;100705.48;;;8.72;67.56
64632;BME280;58358;50.936;0.246;2022-11-04T13:01:46;100708.08;;;8.51;66.08
64632;BME280;58358;50.936;0.246;2022-11-04T13:04:11;100705.22;;;9.55;65.14
64632;BME280;58358;50.936;0.246;2022-11-04T13:06:38;100710.57;;;10.02;64.13
64632;BME280;58358;50.936;0.246;2022-11-04T13:09:04;100712.25;;;8.85;66.88
64632;BME280;58358;50.936;0.246;2022-11-04T13:11:30;100710.36;;;9.83;65.64
64632;BME280;58358;50.936;0.246;2022-11-04T13:13:58;100711.58;;;9.78;64.57